createdAt,value
2019-06-26T00:02:18.218Z,22.50
2019-06-26T00:04:49.483Z,22.40
2019-06-26T00:07:21.211Z,22.30
2019-06-26T00:09:52.330Z,22.40
2019-06-26T00:12:23.347Z,22.40
2019-06-26T00:14:54.579Z,22.30
2019-06-26T00:17:25.483Z,22.10
2019-06-26T00:19:56.759Z,22.20
2019-06-26T00:22:27.806Z,22.40
2019-06-26T00:24:59.568Z,22.50
2019-06-26T00:27:31.187Z,22.30
2019-06-26T00:30:02.507Z,22.20
2019-06-26T00:32:33.834Z,22.20
2019-06-26T00:35:04.856Z,22.30
2019-06-26T00:37:37.142Z,22.30
2019-06-26T00:40:08.044Z,22.10
2019-06-26T00:42:39.934Z,22.00
2019-06-26T00:45:11.980Z,22.00
2019-06-26T00:47:43.087Z,22.00
2019-06-26T00:50:14.666Z,22.10
2019-06-26T00:52:45.833Z,22.00
2019-06-26T00:55:16.670Z,22.00
2019-06-26T00:57:49.142Z,21.80
2019-06-26T02:00:59.004Z,21.20
2019-06-26T02:03:38.759Z,21.10
2019-06-26T02:06:09.624Z,21.10
2019-06-26T02:08:40.895Z,21.00
2019-06-26T02:11:12.499Z,21.10
2019-06-26T02:13:43.832Z,21.20
2019-06-26T02:16:15.393Z,21.10
2019-06-26T02:18:54.022Z,21.00
2019-06-26T02:21:25.826Z,21.10
2019-06-26T02:23:57.447Z,21.10
2019-06-26T02:26:28.664Z,21.10
2019-06-26T02:28:59.559Z,21.20
2019-06-26T02:31:31.668Z,21.20
2019-06-26T02:34:05.830Z,21.10
2019-06-26T02:36:36.574Z,21.10
2019-06-26T02:39:08.308Z,21.00
2019-06-26T02:41:39.188Z,20.90
2019-06-26T02:44:10.864Z,21.00
2019-06-26T02:46:42.735Z,21.00
2019-06-26T02:49:13.976Z,21.00
2019-06-26T02:51:45.440Z,20.90
2019-06-26T02:54:16.640Z,20.90
2019-06-26T02:56:47.919Z,20.90
2019-06-26T02:59:19.123Z,20.90
2019-06-26T03:01:50.544Z,20.90
2019-06-26T03:04:22.485Z,20.90
2019-06-26T03:06:53.336Z,20.70
2019-06-26T03:09:24.532Z,20.80
2019-06-26T03:11:55.760Z,20.80
2019-06-26T03:14:26.355Z,20.70
2019-06-26T03:16:57.571Z,20.70
2019-06-26T03:19:28.423Z,20.60
2019-06-26T03:21:59.761Z,20.60
2019-06-26T03:24:30.598Z,20.60
2019-06-26T03:27:01.483Z,20.60
2019-06-26T03:29:32.749Z,20.60
2019-06-26T03:32:03.678Z,20.60
2019-06-26T03:34:34.859Z,20.60
2019-06-26T03:37:06.127Z,20.50
2019-06-26T03:39:37.119Z,20.50
2019-06-26T03:42:08.196Z,20.60
2019-06-26T03:44:38.719Z,20.60
2019-06-26T03:47:09.271Z,20.60
2019-06-26T03:49:40.211Z,20.50
2019-06-26T03:52:11.782Z,20.30
2019-06-26T03:54:43.373Z,20.30
2019-06-26T03:57:14.832Z,20.40
2019-06-26T03:59:46.160Z,20.50
2019-06-26T04:02:17.455Z,20.50
2019-06-26T04:04:48.810Z,20.60
2019-06-26T04:07:20.045Z,20.60
2019-06-26T04:09:51.287Z,20.50
2019-06-26T04:12:22.093Z,20.40
2019-06-26T04:14:53.333Z,20.20
2019-06-26T04:17:24.496Z,20.20
2019-06-26T04:19:55.594Z,20.10
2019-06-26T04:22:26.763Z,20.20
2019-06-26T04:24:57.636Z,20.30
2019-06-26T04:27:28.991Z,20.20
2019-06-26T04:30:00.205Z,20.20
2019-06-26T04:32:31.271Z,20.30
2019-06-26T04:35:02.935Z,20.30
2019-06-26T04:37:33.979Z,20.30
2019-06-26T04:40:05.115Z,20.40
2019-06-26T04:42:36.276Z,20.30
2019-06-26T04:45:07.985Z,20.40
2019-06-26T04:47:38.530Z,20.40
2019-06-26T04:50:10.054Z,20.40
2019-06-26T04:52:41.202Z,20.40
2019-06-26T04:55:13.228Z,20.50
2019-06-26T04:57:44.218Z,20.60
2019-06-26T05:00:16.655Z,20.60
2019-06-26T05:02:48.969Z,20.60
2019-06-26T05:05:19.899Z,20.70
2019-06-26T05:07:53.735Z,20.80
2019-06-26T05:10:23.594Z,20.90
2019-06-26T05:12:54.921Z,21.00
2019-06-26T05:15:25.936Z,21.00
2019-06-26T05:17:57.189Z,21.00
2019-06-26T05:20:28.047Z,21.10
2019-06-26T05:22:59.268Z,21.20
2019-06-26T05:25:30.481Z,21.20
2019-06-26T05:28:01.738Z,21.20
2019-06-26T05:30:33.499Z,21.30
2019-06-26T05:33:04.345Z,21.40
2019-06-26T05:35:35.962Z,21.40
2019-06-26T05:38:06.818Z,21.50
2019-06-26T05:40:38.707Z,21.60
2019-06-26T05:43:12.131Z,21.60
2019-06-26T05:45:44.238Z,21.70
2019-06-26T05:48:15.391Z,21.80
2019-06-26T05:50:47.036Z,21.90
2019-06-26T05:53:18.522Z,22.00
2019-06-26T05:55:49.423Z,22.10
2019-06-26T05:58:20.610Z,22.20
2019-06-26T06:00:52.951Z,22.30
2019-06-26T06:03:24.009Z,22.40
2019-06-26T06:05:55.383Z,22.50
2019-06-26T06:10:58.252Z,22.80
2019-06-26T06:13:29.672Z,22.90
2019-06-26T06:16:00.756Z,23.00
2019-06-26T06:18:31.751Z,23.10
2019-06-26T06:21:03.247Z,23.20
2019-06-26T06:23:34.885Z,23.40
2019-06-26T06:26:06.416Z,23.70
2019-06-26T06:28:37.246Z,23.90
2019-06-26T06:31:08.052Z,24.00
2019-06-26T06:33:39.165Z,24.20
2019-06-26T06:36:10.375Z,24.50
2019-06-26T06:38:41.556Z,24.70
2019-06-26T06:41:13.013Z,24.90
2019-06-26T06:43:44.638Z,25.30
2019-06-26T06:46:15.806Z,25.60
2019-06-26T06:48:46.627Z,25.80
2019-06-26T06:51:18.204Z,26.10
2019-06-26T06:53:49.786Z,26.40
2019-06-26T06:56:21.134Z,26.60
2019-06-26T06:58:52.540Z,26.90
2019-06-26T07:01:23.063Z,27.10
2019-06-26T07:03:55.260Z,27.40
2019-06-26T07:06:26.694Z,27.60
2019-06-26T07:08:57.485Z,27.90
2019-06-26T07:11:29.495Z,28.10
2019-06-26T07:14:00.623Z,28.40
2019-06-26T07:16:32.501Z,28.80
2019-06-26T07:19:03.367Z,29.20
2019-06-26T07:21:34.537Z,29.50
2019-06-26T07:24:08.905Z,29.60
2019-06-26T07:26:40.112Z,29.90
2019-06-26T07:29:11.240Z,30.30
2019-06-26T07:31:42.947Z,30.50
2019-06-26T07:34:14.159Z,30.20
2019-06-26T07:36:45.304Z,30.50
2019-06-26T07:39:16.488Z,30.90
2019-06-26T07:41:47.015Z,30.90
2019-06-26T07:44:17.917Z,31.00
2019-06-26T07:46:48.940Z,31.40
2019-06-26T07:49:20.643Z,31.60
2019-06-26T07:51:51.535Z,31.80
2019-06-26T07:54:22.095Z,31.90
2019-06-26T07:56:53.310Z,32.20
2019-06-26T07:59:24.884Z,32.30
2019-06-26T08:01:55.751Z,32.40
2019-06-26T08:04:27.038Z,32.70
2019-06-26T08:06:58.288Z,32.70
2019-06-26T08:09:29.925Z,33.00
2019-06-26T08:12:01.471Z,33.20
2019-06-26T08:14:32.324Z,33.50
2019-06-26T08:17:03.574Z,33.80
2019-06-26T08:19:35.397Z,33.50
2019-06-26T08:22:07.522Z,33.90
2019-06-26T08:24:39.017Z,34.30
2019-06-26T08:27:12.969Z,34.00
2019-06-26T08:29:43.295Z,33.90
2019-06-26T08:32:14.196Z,34.00
2019-06-26T08:34:46.150Z,34.40
2019-06-26T08:37:17.737Z,34.90
2019-06-26T08:39:48.887Z,34.80
2019-06-26T08:42:20.764Z,34.70
2019-06-26T08:44:52.213Z,35.10
2019-06-26T08:47:23.651Z,35.30
2019-06-26T08:49:55.253Z,35.70
2019-06-26T08:52:26.316Z,35.90
2019-06-26T08:54:57.443Z,35.80
2019-06-26T08:57:28.422Z,36.10
2019-06-26T08:59:59.653Z,36.20
2019-06-26T09:02:31.968Z,36.20
2019-06-26T09:05:03.207Z,36.60
2019-06-26T09:07:34.182Z,36.60
2019-06-26T09:10:04.971Z,36.40
2019-06-26T09:12:35.914Z,36.90
2019-06-26T09:15:07.072Z,37.20
2019-06-26T09:17:39.645Z,37.40
2019-06-26T09:20:11.283Z,37.50
2019-06-26T09:22:42.204Z,37.80
2019-06-26T09:25:21.491Z,37.80
2019-06-26T09:27:46.836Z,37.50
2019-06-26T09:30:18.806Z,37.80
2019-06-26T09:32:50.767Z,38.20
2019-06-26T09:35:21.687Z,38.20
2019-06-26T09:37:52.971Z,38.30
2019-06-26T09:40:24.219Z,38.50
2019-06-26T09:42:55.498Z,38.20
2019-06-26T09:45:26.493Z,38.60
2019-06-26T09:47:57.909Z,38.80
2019-06-26T09:50:29.067Z,38.70
2019-06-26T09:53:00.382Z,38.70
2019-06-26T09:55:32.828Z,38.00
2019-06-26T09:58:04.023Z,38.60
2019-06-26T10:00:36.310Z,39.10
2019-06-26T10:03:07.566Z,39.10
2019-06-26T10:05:39.297Z,39.70
2019-06-26T10:08:10.910Z,39.80
2019-06-26T10:10:41.809Z,40.00
2019-06-26T10:13:12.398Z,39.60
2019-06-26T10:15:43.549Z,39.60
2019-06-26T10:18:15.031Z,39.70
2019-06-26T10:20:45.852Z,39.50
2019-06-26T10:23:17.039Z,39.30
2019-06-26T10:25:48.536Z,39.40
2019-06-26T10:28:19.703Z,40.00
2019-06-26T10:30:52.259Z,40.00
2019-06-26T10:33:22.791Z,40.40
2019-06-26T10:35:53.734Z,39.60
2019-06-26T10:38:25.133Z,39.80
2019-06-26T10:40:55.752Z,40.10
2019-06-26T10:43:26.672Z,40.00
2019-06-26T10:45:57.974Z,40.00
2019-06-26T10:48:29.359Z,40.60
2019-06-26T10:51:00.215Z,40.90
2019-06-26T10:53:31.483Z,41.20
2019-06-26T10:56:02.801Z,41.30
2019-06-26T10:58:34.083Z,41.40
2019-06-26T11:01:05.783Z,41.50
2019-06-26T11:03:38.105Z,42.00
2019-06-26T11:06:09.348Z,41.50
2019-06-26T11:08:40.840Z,42.10
2019-06-26T11:11:12.375Z,41.40
2019-06-26T11:13:43.584Z,40.60
2019-06-26T11:16:14.735Z,41.00
2019-06-26T11:18:46.529Z,41.50
2019-06-26T11:21:18.306Z,41.40
2019-06-26T11:23:50.313Z,41.10
2019-06-26T11:26:21.560Z,41.00
2019-06-26T11:28:52.774Z,40.80
2019-06-26T11:31:24.023Z,41.30
2019-06-26T11:33:55.333Z,41.60
2019-06-26T11:36:27.249Z,41.40
2019-06-26T11:38:58.938Z,41.60
2019-06-26T11:41:30.306Z,41.20
2019-06-26T11:44:01.685Z,40.90
2019-06-26T11:46:33.464Z,41.90
2019-06-26T11:49:04.189Z,42.30
2019-06-26T11:51:35.104Z,43.10
2019-06-26T11:54:06.603Z,42.60
2019-06-26T11:56:38.302Z,42.10
2019-06-26T11:59:09.618Z,42.60
2019-06-26T12:01:40.561Z,42.60
2019-06-26T12:04:13.039Z,42.30
2019-06-26T12:06:45.908Z,42.70
2019-06-26T12:09:17.544Z,42.00
2019-06-26T12:11:48.854Z,41.80
2019-06-26T12:14:20.199Z,41.00
2019-06-26T12:16:50.761Z,40.70
2019-06-26T12:19:23.585Z,41.60
2019-06-26T12:21:54.312Z,42.20
2019-06-26T12:24:26.527Z,42.40
2019-06-26T12:26:58.178Z,42.40
2019-06-26T12:29:32.851Z,41.90
2019-06-26T12:32:07.907Z,42.20
2019-06-26T12:34:39.111Z,42.00
2019-06-26T12:37:10.461Z,42.20
2019-06-26T12:39:41.326Z,42.60
2019-06-26T12:42:12.707Z,42.90
2019-06-26T12:44:44.230Z,42.70
2019-06-26T12:47:15.478Z,43.00
2019-06-26T12:49:46.602Z,43.40
2019-06-26T12:52:17.561Z,42.80
2019-06-26T12:54:48.756Z,43.10
2019-06-26T12:57:20.668Z,43.40
2019-06-26T12:59:57.332Z,43.70
2019-06-26T13:02:25.271Z,43.30
2019-06-26T13:04:56.195Z,43.40
2019-06-26T13:07:30.729Z,43.60
2019-06-26T13:10:02.755Z,44.20
2019-06-26T13:12:34.895Z,43.30
2019-06-26T13:15:05.919Z,43.30
2019-06-26T13:17:37.858Z,43.40
2019-06-26T13:22:41.619Z,44.50
2019-06-26T13:25:15.984Z,44.70
2019-06-26T13:27:52.784Z,44.30
2019-06-26T13:30:30.717Z,44.10
2019-06-26T13:33:02.631Z,44.60
2019-06-26T13:35:36.098Z,44.70
2019-06-26T13:38:08.783Z,43.90
2019-06-26T13:40:41.384Z,43.90
2019-06-26T13:43:12.911Z,44.60
2019-06-26T13:45:44.207Z,44.70
2019-06-26T13:48:16.180Z,44.40
2019-06-26T13:50:47.719Z,44.60
2019-06-26T13:53:20.337Z,44.70
2019-06-26T13:55:51.658Z,44.40
2019-06-26T13:58:23.136Z,44.50
2019-06-26T14:00:54.477Z,43.90
2019-06-26T14:03:25.825Z,44.00
2019-06-26T14:05:57.555Z,43.60
2019-06-26T14:08:32.703Z,43.60
2019-06-26T14:11:02.447Z,43.80
2019-06-26T14:13:33.890Z,43.60
2019-06-26T14:16:05.253Z,43.80
2019-06-26T14:18:39.868Z,44.00
2019-06-26T14:21:24.509Z,44.10
2019-06-26T14:23:44.111Z,44.10
2019-06-26T14:26:15.747Z,44.30
2019-06-26T14:28:48.565Z,44.50
2019-06-26T14:31:20.037Z,44.60
2019-06-26T14:33:51.539Z,44.60
2019-06-26T14:36:23.675Z,44.70
2019-06-26T14:38:55.507Z,44.40
2019-06-26T14:41:27.223Z,43.80
2019-06-26T14:43:58.459Z,43.80
2019-06-26T14:46:30.538Z,43.60
2019-06-26T14:49:02.016Z,43.10
2019-06-26T14:51:45.490Z,43.10
2019-06-26T14:54:14.716Z,43.10
2019-06-26T14:56:45.532Z,43.50
2019-06-26T14:59:16.743Z,43.70
2019-06-26T15:01:49.036Z,44.10
2019-06-26T15:04:21.030Z,43.80
2019-06-26T15:06:53.187Z,43.10
2019-06-26T15:09:26.034Z,43.20
2019-06-26T15:14:27.700Z,43.50
2019-06-26T15:16:58.370Z,43.60
2019-06-26T15:19:29.994Z,43.30
2019-06-26T15:22:01.819Z,43.00
2019-06-26T15:24:32.775Z,42.90
2019-06-26T15:27:07.639Z,43.40
2019-06-26T15:29:39.321Z,43.40
2019-06-26T15:32:10.978Z,43.70
2019-06-26T15:34:42.952Z,43.10
2019-06-26T15:37:14.651Z,43.10
2019-06-26T15:39:45.275Z,43.10
2019-06-26T15:42:16.788Z,43.00
2019-06-26T15:44:47.939Z,43.10
2019-06-26T15:47:18.863Z,43.10
2019-06-26T15:49:50.407Z,42.80
2019-06-26T15:52:23.240Z,42.80
2019-06-26T15:54:54.168Z,42.90
2019-06-26T15:57:27.179Z,42.90
2019-06-26T15:59:58.775Z,42.50
2019-06-26T16:02:30.429Z,42.70
2019-06-26T16:05:01.796Z,42.50
2019-06-26T16:07:33.132Z,42.40
2019-06-26T16:10:04.215Z,42.40
2019-06-26T16:12:35.483Z,42.00
2019-06-26T16:15:08.702Z,42.10
2019-06-26T16:20:45.291Z,41.80
2019-06-26T16:23:16.839Z,41.70
2019-06-26T16:25:48.087Z,41.40
2019-06-26T16:28:19.264Z,41.90
2019-06-26T16:30:54.708Z,42.00
2019-06-26T16:33:25.719Z,42.20
2019-06-26T16:35:57.447Z,42.30
2019-06-26T16:40:59.205Z,42.40
2019-06-26T16:43:30.098Z,42.40
2019-06-26T16:46:00.984Z,42.50
2019-06-26T16:48:32.590Z,42.20
2019-06-26T16:56:07.187Z,42.60
2019-06-26T17:01:08.464Z,42.70
2019-06-26T17:16:12.071Z,43.10
2019-06-26T17:18:43.697Z,43.00
2019-06-26T17:21:14.586Z,43.00
2019-06-26T17:26:15.812Z,42.50
2019-06-26T17:28:46.979Z,42.60
2019-06-26T17:31:18.616Z,42.70
2019-06-26T17:33:50.403Z,42.00
2019-06-26T17:36:22.266Z,42.10
2019-06-26T17:38:52.803Z,42.20
2019-06-26T17:41:23.683Z,42.00
2019-06-26T17:43:55.536Z,41.30
2019-06-26T17:46:26.504Z,41.20
2019-06-26T17:48:57.785Z,40.90
2019-06-26T17:51:29.271Z,40.90
2019-06-26T17:54:00.094Z,40.40
2019-06-26T17:56:31.260Z,39.70
2019-06-26T17:59:02.711Z,39.40
2019-06-26T18:01:33.991Z,39.20
2019-06-26T18:04:06.145Z,38.70
2019-06-26T18:06:37.547Z,38.50
2019-06-26T18:09:12.359Z,38.40
2019-06-26T18:11:43.467Z,38.40
2019-06-26T18:14:15.208Z,38.00
2019-06-26T18:16:46.811Z,37.90
2019-06-26T18:19:17.710Z,37.70
2019-06-26T18:21:48.983Z,37.30
2019-06-26T18:24:20.531Z,37.20
2019-06-26T18:26:51.374Z,37.00
2019-06-26T18:29:22.398Z,36.70
2019-06-26T18:31:53.577Z,36.30
2019-06-26T18:34:24.752Z,36.30
2019-06-26T18:36:56.203Z,36.30
2019-06-26T18:39:27.778Z,36.20
2019-06-26T18:41:59.122Z,36.10
2019-06-26T18:44:30.040Z,35.60
2019-06-26T18:47:01.388Z,35.00
2019-06-26T18:49:32.758Z,35.00
2019-06-26T18:52:07.548Z,34.50
2019-06-26T18:54:37.039Z,34.30
2019-06-26T18:57:08.336Z,34.40
2019-06-26T18:59:42.188Z,34.50
2019-06-26T19:02:12.267Z,34.20
2019-06-26T19:04:42.818Z,34.30
2019-06-26T19:07:14.446Z,33.80
2019-06-26T19:09:45.682Z,33.60
2019-06-26T19:12:17.748Z,33.60
2019-06-26T19:14:48.319Z,33.50
2019-06-26T19:17:20.635Z,33.40
2019-06-26T19:19:51.998Z,33.10
2019-06-26T19:22:24.210Z,33.00
2019-06-26T19:24:55.828Z,32.80
2019-06-26T19:27:27.032Z,32.70
2019-06-26T19:29:58.803Z,32.40
2019-06-26T19:32:32.387Z,32.40
2019-06-26T19:35:18.594Z,32.10
2019-06-26T19:37:36.251Z,32.00
2019-06-26T19:40:09.254Z,31.90
2019-06-26T19:42:39.858Z,31.70
2019-06-26T19:45:12.203Z,31.50
2019-06-26T19:47:43.353Z,31.60
2019-06-26T19:50:15.011Z,31.50
2019-06-26T19:52:45.746Z,31.40
2019-06-26T19:57:48.171Z,30.90
2019-06-26T20:00:19.416Z,30.80
2019-06-26T20:02:50.483Z,30.50
2019-06-26T20:05:21.450Z,30.30
2019-06-26T20:07:53.534Z,30.40
2019-06-26T20:10:24.367Z,30.30
2019-06-26T20:12:56.058Z,30.30
2019-06-26T20:15:27.260Z,30.40
2019-06-26T20:17:58.591Z,30.30
2019-06-26T20:20:29.735Z,30.10
2019-06-26T20:23:01.034Z,30.20
2019-06-26T20:25:36.583Z,30.20
2019-06-26T20:28:07.555Z,29.90
2019-06-26T20:30:38.099Z,30.00
2019-06-26T20:33:09.079Z,30.00
2019-06-26T20:35:39.673Z,30.00
2019-06-26T20:38:10.875Z,29.90
2019-06-26T20:40:45.806Z,29.80
2019-06-26T20:43:16.024Z,29.80
2019-06-26T20:45:47.153Z,29.90
2019-06-26T20:48:17.779Z,29.90
2019-06-26T20:50:48.996Z,29.80
2019-06-26T20:53:20.031Z,29.80
2019-06-26T20:55:51.227Z,29.70
2019-06-26T20:58:22.442Z,29.70
2019-06-26T21:00:53.318Z,29.60
2019-06-26T21:03:24.567Z,29.50
2019-06-26T21:05:55.748Z,29.50
2019-06-26T21:08:29.397Z,29.40
2019-06-26T21:11:00.501Z,29.40
2019-06-26T21:13:32.000Z,29.30
2019-06-26T21:16:02.808Z,29.20
2019-06-26T21:18:33.745Z,29.20
2019-06-26T21:21:05.023Z,29.20
2019-06-26T21:23:36.545Z,29.10
2019-06-26T21:26:07.630Z,29.00
2019-06-26T21:28:38.874Z,29.00
2019-06-26T21:31:10.158Z,28.90
2019-06-26T21:33:41.341Z,28.90
2019-06-26T21:36:13.096Z,28.80
2019-06-26T21:38:44.343Z,28.80
2019-06-26T21:41:15.762Z,28.70
2019-06-26T21:43:47.001Z,28.70
2019-06-26T21:46:18.275Z,28.70
2019-06-26T21:48:49.876Z,28.60
2019-06-26T21:51:21.336Z,28.50
2019-06-26T21:53:52.858Z,28.50
2019-06-26T21:56:42.231Z,28.50
2019-06-26T21:59:31.660Z,28.50
2019-06-26T22:02:21.385Z,28.40
2019-06-26T22:04:56.887Z,28.30
2019-06-26T22:07:29.557Z,28.20
2019-06-26T22:10:02.715Z,28.20
2019-06-26T22:12:35.219Z,28.20
2019-06-26T22:15:06.191Z,28.10
2019-06-26T22:17:38.767Z,28.10
2019-06-26T22:20:12.769Z,28.00
2019-06-26T22:22:45.188Z,27.80
2019-06-26T22:25:16.947Z,27.80
2019-06-26T22:27:48.876Z,27.80
2019-06-26T22:32:50.698Z,27.40
2019-06-26T22:35:22.046Z,27.40
2019-06-26T22:37:53.615Z,27.40
2019-06-26T22:40:25.123Z,27.30
2019-06-26T22:42:56.994Z,27.20
2019-06-26T22:45:28.157Z,27.10
2019-06-26T22:47:58.700Z,27.00
2019-06-26T22:50:30.087Z,27.00
2019-06-26T22:53:01.400Z,26.90
2019-06-26T22:55:32.911Z,26.80
2019-06-26T22:58:06.236Z,26.70
2019-06-26T23:00:37.482Z,26.60
2019-06-26T23:03:08.695Z,26.60
2019-06-26T23:05:39.620Z,26.50
2019-06-26T23:08:10.707Z,26.50
2019-06-26T23:10:41.954Z,26.60
2019-06-26T23:13:13.459Z,26.50
2019-06-26T23:15:44.957Z,26.60
2019-06-26T23:18:15.957Z,26.50
2019-06-26T23:20:46.809Z,26.30
2019-06-26T23:23:17.641Z,26.30
2019-06-26T23:25:48.836Z,26.30
2019-06-26T23:28:19.459Z,26.30
2019-06-26T23:30:51.671Z,26.10
2019-06-26T23:33:23.167Z,26.00
2019-06-26T23:35:54.680Z,26.10
2019-06-26T23:38:26.292Z,26.00
2019-06-26T23:40:58.346Z,26.00
2019-06-26T23:43:29.510Z,26.00
2019-06-26T23:46:00.321Z,26.00
2019-06-26T23:48:31.501Z,25.90
2019-06-26T23:51:03.020Z,25.90
2019-06-26T23:53:34.237Z,25.90
2019-06-26T23:56:05.160Z,25.90
2019-06-26T23:58:36.654Z,25.90
